Aeroboteco Virtual Airline

Aeroboteco Virtual Airlines! Uma nuvem a frente.



 INFORMAÇÕES METEOROLÓGICAS
METAR FOR PAGS
ADDS - METARS form results

(1241 UTC 17 January 2019)
Data provider http://aviationweather.gov/metar/data/
 
METAR text: PAGS 171238Z AUTO 00000KT 2SM BR OVC002 M06/M07 A2968 RMK AO2 VIS 3/4V5 FZRANO
Conditions at: PAGS (GUSTAVUS , AK, US) observed 1238 UTC 17 January 2019
Temperature: -6.0°C (21°F)
Dewpoint: -7.0°C (19°F) [RH = 93%]
Pressure (altimeter): 29.68 inches Hg (1005.2 mb)
Winds: calm
Visibility: 2.00 miles (3.22 km)
Ceiling: 200 feet AGL
Clouds: overcast cloud deck at 200 feet AGL
Weather: BR  (mist)

METAR text: PAGS 171233Z AUTO 00000KT 1SM BR OVC002 M06/M07 A2968 RMK AO2 FZRANO RVRNO
Conditions at: PAGS (GUSTAVUS , AK, US) observed 1233 UTC 17 January 2019
Temperature: -6.0°C (21°F)
Dewpoint: -7.0°C (19°F) [RH = 93%]
Pressure (altimeter): 29.68 inches Hg (1005.2 mb)
Winds: calm
Visibility: 1.00 miles (1.61 km)
Ceiling: 200 feet AGL
Clouds: overcast cloud deck at 200 feet AGL
Weather: BR  (mist)

METAR text: PAGS 171224Z AUTO 00000KT 1/2SM FZFG OVC002 M06/M07 A2968 RMK AO2 FZRANO RVRNO
Conditions at: PAGS (GUSTAVUS , AK, US) observed 1224 UTC 17 January 2019
Temperature: -6.0°C (21°F)
Dewpoint: -7.0°C (19°F) [RH = 93%]
Pressure (altimeter): 29.68 inches Hg (1005.2 mb)
Winds: calm
Visibility: 0.50 miles (0.80 km)
Ceiling: 200 feet AGL
Clouds: overcast cloud deck at 200 feet AGL
Weather: FZFG  (freezing fog)

METAR text: PAGS 171207Z AUTO 33003KT 3/4SM BR OVC002 M06/M07 A2969 RMK AO2 VIS 1/2V3 FZRANO RVRNO
Conditions at: PAGS (GUSTAVUS , AK, US) observed 1207 UTC 17 January 2019
Temperature: -6.0°C (21°F)
Dewpoint: -7.0°C (19°F) [RH = 93%]
Pressure (altimeter): 29.69 inches Hg (1005.5 mb)
Winds: from the NNW (330 degrees) at 3 MPH (3 knots; 1.5 m/s)
Visibility: 0.75 miles (1.21 km)
Ceiling: 200 feet AGL
Clouds: overcast cloud deck at 200 feet AGL
Weather: BR  (mist)

METAR text: PAGS 171156Z AUTO 00000KT 1 1/4SM BR OVC002 M06/M07 A2969 RMK AO2 SLP055 T10561067 11033 21056 56013 FZRANO
Conditions at: PAGS (GUSTAVUS , AK, US) observed 1156 UTC 17 January 2019
Temperature: -5.6°C (22°F)
Dewpoint: -6.7°C (20°F) [RH = 92%]
Pressure (altimeter): 29.69 inches Hg (1005.5 mb)
[Sea-level pressure: 1005.5 mb]
Winds: calm
Visibility: 1.25 miles (2.01 km)
Ceiling: 200 feet AGL
Clouds: overcast cloud deck at 200 feet AGL
Weather: BR  (mist)

METAR text: PAGS 171146Z AUTO 00000KT 2SM BR OVC002 M06/M07 A2970 RMK AO2 FZRANO
Conditions at: PAGS (GUSTAVUS , AK, US) observed 1146 UTC 17 January 2019
Temperature: -6.0°C (21°F)
Dewpoint: -7.0°C (19°F) [RH = 93%]
Pressure (altimeter): 29.70 inches Hg (1005.8 mb)
Winds: calm
Visibility: 2.00 miles (3.22 km)
Ceiling: 200 feet AGL
Clouds: overcast cloud deck at 200 feet AGL
Weather: BR  (mist)

Forecast for: PAGS (GUSTAVUS , AK, US)
Text: PAGS 171130Z 1712/1812 33006KT 2SM BR SCT002
Forecast period: 1200 to 1700 UTC 17 January 2019
Forecast type: FROM: standard forecast or significant change
Winds: from the NNW (330 degrees) at 7 MPH (6 knots; 3.1 m/s)
Visibility: 2.00 miles (3.22 km)
Ceiling: at least 12,000 feet AGL
Clouds: scattered clouds at 200 feet AGL
Weather: BR  (mist)
Text: TEMPO 1712/1716 1/2SM FG VV002
Forecast period: 1200 to 1600 UTC 17 January 2019
Forecast type: TEMPORARY: The following changes expected for less than half the time period
Visibility: 0.50 miles (0.80 km)
Ceiling: indefinite ceiling with vertical visibility of 200 feet AGL
Clouds: obscured sky
Weather: FG  (fog)
Text: FM171700 34003KT P6SM FEW150 AMD LTD TO CLD VIS AND WIND
Forecast period: 1700 UTC 17 January 2019 to 1200 UTC 18 January 2019
Forecast type: FROM: standard forecast or significant change
Winds: from the NNW (340 degrees) at 3 MPH (3 knots; 1.5 m/s)
Visibility: 6 or more miles 10+ km)
Ceiling: at least 12,000 feet AGL
Clouds: few clouds at 15000 feet AGL
Weather: no significant weather forecast for this period

 MAPA DO AEROPORTO

 INFORMAÇÕES DA PISTA
Pista 02 Tamanho da pista 3010 ft Largura da pista 60 ft
Elevação da pista 28 ft Ranhura da pista 0 ft Proa da pista 41
Pista 20 Tamanho da pista 3010 ft Largura da pista 60 ft
Elevação da pista 30 ft Ranhura da pista 0 ft Proa da pista 221
Pista 11 Tamanho da pista 6720 ft Largura da pista 150 ft
Elevação da pista 34 ft Ranhura da pista 0 ft Proa da pista 135
Pista 29 Tamanho da pista 6720 ft Largura da pista 150 ft
Elevação da pista 26 ft Ranhura da pista 0 ft Proa da pista 315

 FREQUÊNCIAS DO AEROPORTO
Tipo AWOS Nome AWOS 3 Frequência 125.9 MHZ
Tipo CNTR Nome ANCHORAGE Frequência 133.2 MHZ
Tipo CTAF Nome CTAF Frequência 122.5 MHZ
Tipo RCO Nome JUNEAU RDO Frequência 122.65 MHZ

 AUXÍLIOS DE NAVEGAÇÃO PRÓXIMOS AO AEROPORTO
Tipo NDB Nome Gustavus Frequência 219 KHZ